createdAt,value
2024-02-28T00:00:00.548Z,99110.66
2024-02-28T00:02:32.810Z,99108.27
2024-02-28T00:05:04.870Z,99108.23
2024-02-28T00:07:37.174Z,99110.13
2024-02-28T00:10:10.754Z,99111.77
2024-02-28T00:12:43.748Z,99107.58
2024-02-28T00:15:15.871Z,99113.04
2024-02-28T00:17:48.024Z,99112.70
2024-02-28T00:20:20.077Z,99111.13
2024-02-28T00:22:51.979Z,99115.06
2024-02-28T00:25:23.964Z,99119.46
2024-02-28T00:27:55.919Z,99116.98
2024-02-28T00:30:29.960Z,99121.52
2024-02-28T00:33:02.578Z,99121.52
2024-02-28T00:35:36.788Z,99128.17
2024-02-28T00:38:09.669Z,99126.52
2024-02-28T00:40:41.577Z,99121.96
2024-02-28T00:43:13.861Z,99124.67
2024-02-28T00:45:45.874Z,99130.39
2024-02-28T00:48:17.919Z,99129.58
2024-02-28T00:50:49.879Z,99131.64
2024-02-28T00:53:22.537Z,99128.64
2024-02-28T00:55:54.468Z,99129.12
2024-02-28T00:58:27.772Z,99129.73
2024-02-28T01:01:00.865Z,99133.08
2024-02-28T01:03:33.542Z,99127.71
2024-02-28T01:06:06.204Z,99133.59
2024-02-28T01:08:38.097Z,99139.81
2024-02-28T01:11:09.996Z,99144.73
2024-02-28T01:13:41.888Z,99149.06
2024-02-28T01:16:14.108Z,99154.59
2024-02-28T01:18:45.997Z,99156.00
2024-02-28T01:21:17.991Z,99155.56
2024-02-28T01:23:49.905Z,99159.05
2024-02-28T01:26:23.359Z,99162.52
2024-02-28T01:28:55.239Z,99160.72
2024-02-28T01:31:27.196Z,99163.50
2024-02-28T01:33:59.173Z,99162.14
2024-02-28T01:36:31.224Z,99163.91
2024-02-28T01:39:04.484Z,99166.59
2024-02-28T01:41:36.404Z,99166.06
2024-02-28T01:44:08.672Z,99161.71
2024-02-28T01:46:40.654Z,99161.64
2024-02-28T01:49:12.918Z,99158.95
2024-02-28T01:51:46.750Z,99159.59
2024-02-28T01:54:20.608Z,99154.02
2024-02-28T01:56:53.019Z,99151.73
2024-02-28T01:59:28.676Z,99149.60
2024-02-28T02:02:01.062Z,99147.58
2024-02-28T02:04:32.965Z,99150.98
2024-02-28T02:07:06.178Z,99147.37
2024-02-28T02:09:38.385Z,99147.58
2024-02-28T02:12:11.376Z,99147.21
2024-02-28T02:14:43.829Z,99148.77
2024-02-28T02:17:16.046Z,99145.23
2024-02-28T02:19:48.048Z,99145.14
2024-02-28T02:22:21.334Z,99145.48
2024-02-28T02:24:53.253Z,99140.25
2024-02-28T02:27:28.572Z,99141.46
2024-02-28T02:30:00.848Z,99140.84
2024-02-28T02:32:33.142Z,99141.52
2024-02-28T02:35:05.570Z,99138.84
2024-02-28T02:37:37.598Z,99135.02
2024-02-28T02:40:11.599Z,99130.80
2024-02-28T02:42:43.499Z,99129.48
2024-02-28T02:45:16.162Z,99127.27
2024-02-28T02:47:48.241Z,99125.20
2024-02-28T02:50:20.829Z,99124.54
2024-02-28T02:52:52.837Z,99122.42
2024-02-28T02:55:24.684Z,99120.16
2024-02-28T02:57:57.065Z,99121.48
2024-02-28T03:00:29.200Z,99122.08
2024-02-28T03:03:01.191Z,99121.50
2024-02-28T03:05:33.090Z,99123.64
2024-02-28T03:08:05.956Z,99121.82
2024-02-28T03:10:37.767Z,99118.61
2024-02-28T03:13:09.729Z,99119.23
2024-02-28T03:15:41.657Z,99117.80
2024-02-28T03:18:13.893Z,99119.71
2024-02-28T03:20:46.139Z,99125.23
2024-02-28T03:23:18.275Z,99120.80
2024-02-28T03:25:50.269Z,99125.42
2024-02-28T03:28:22.158Z,99124.80
2024-02-28T03:30:54.212Z,99127.20
2024-02-28T03:33:26.622Z,99126.39
2024-02-28T03:35:58.518Z,99130.56
2024-02-28T03:38:30.398Z,99128.62
2024-02-28T03:41:04.308Z,99129.95
2024-02-28T03:43:36.192Z,99127.27
2024-02-28T03:46:08.203Z,99131.45
2024-02-28T03:48:40.107Z,99135.16
2024-02-28T03:51:11.983Z,99130.36
2024-02-28T03:53:44.380Z,99128.15
2024-02-28T03:56:25.925Z,99129.70
2024-02-28T03:58:58.178Z,99133.83
2024-02-28T04:01:30.093Z,99132.86
2024-02-28T04:04:02.248Z,99131.95
2024-02-28T04:06:34.112Z,99135.34
2024-02-28T04:09:06.056Z,99137.55
2024-02-28T04:11:39.191Z,99136.04
2024-02-28T04:14:11.237Z,99137.94
2024-02-28T04:16:46.924Z,99137.27
2024-02-28T04:19:19.093Z,99141.33
2024-02-28T04:21:51.025Z,99145.16
2024-02-28T04:24:23.046Z,99147.23
2024-02-28T04:26:55.505Z,99154.49
2024-02-28T04:29:27.460Z,99150.48
2024-02-28T04:31:59.348Z,99157.08
2024-02-28T04:34:31.331Z,99158.46
2024-02-28T04:37:03.201Z,99157.66
2024-02-28T04:39:35.108Z,99160.35
2024-02-28T04:42:07.760Z,99163.24
2024-02-28T04:44:39.770Z,99163.36
2024-02-28T04:47:11.672Z,99165.77
2024-02-28T04:49:43.585Z,99168.66
2024-02-28T04:52:15.493Z,99165.42
2024-02-28T04:54:47.481Z,99168.48
2024-02-28T04:57:19.460Z,99172.34
2024-02-28T04:59:51.434Z,99175.70
2024-02-28T05:02:23.836Z,99177.37
2024-02-28T05:04:56.253Z,99177.34
2024-02-28T05:07:28.120Z,99178.00
2024-02-28T05:10:00.058Z,99180.15
2024-02-28T05:12:32.007Z,99179.83
2024-02-28T05:15:04.067Z,99181.05
2024-02-28T05:17:36.074Z,99185.06
2024-02-28T05:20:10.541Z,99188.48
2024-02-28T05:22:44.916Z,99186.93
2024-02-28T05:25:16.886Z,99191.29
2024-02-28T05:27:48.804Z,99191.84
2024-02-28T05:30:20.941Z,99199.11
2024-02-28T05:32:52.901Z,99197.78
2024-02-28T05:35:24.845Z,99197.89
2024-02-28T05:37:58.584Z,99205.86
2024-02-28T05:40:30.485Z,99202.77
2024-02-28T05:43:03.357Z,99204.42
2024-02-28T05:45:36.037Z,99210.36
2024-02-28T05:48:09.057Z,99207.16
2024-02-28T05:50:41.480Z,99210.02
2024-02-28T05:53:13.408Z,99212.09
2024-02-28T05:55:46.972Z,99214.08
2024-02-28T05:58:18.876Z,99219.57
2024-02-28T06:00:51.054Z,99221.24
2024-02-28T06:03:23.199Z,99219.29
2024-02-28T06:05:56.710Z,99223.55
2024-02-28T06:08:28.598Z,99228.61
2024-02-28T06:11:00.546Z,99225.95
2024-02-28T06:13:32.476Z,99230.34
2024-02-28T06:16:04.872Z,99234.48
2024-02-28T06:18:36.932Z,99233.02
2024-02-28T06:21:09.094Z,99239.11
2024-02-28T06:23:40.959Z,99241.20
2024-02-28T06:26:18.269Z,99247.27
2024-02-28T06:28:49.108Z,99247.83
2024-02-28T06:31:22.152Z,99256.31
2024-02-28T06:33:54.002Z,99255.37
2024-02-28T06:36:26.014Z,99254.42
2024-02-28T06:38:57.923Z,99252.73
2024-02-28T06:41:29.837Z,99253.56
2024-02-28T06:44:01.751Z,99256.63
2024-02-28T06:46:33.768Z,99255.95
2024-02-28T06:49:06.123Z,99258.25
2024-02-28T06:51:38.889Z,99259.71
2024-02-28T06:54:11.636Z,99258.78
2024-02-28T06:56:43.548Z,99262.39
2024-02-28T06:59:15.454Z,99266.85
2024-02-28T07:01:47.481Z,99267.00
2024-02-28T07:04:19.425Z,99271.09
2024-02-28T07:06:51.991Z,99270.84
2024-02-28T07:09:26.884Z,99277.56
2024-02-28T07:11:58.887Z,99278.05
2024-02-28T07:14:30.909Z,99281.52
2024-02-28T07:17:02.806Z,99283.00
2024-02-28T07:19:34.669Z,99284.93
2024-02-28T07:22:08.402Z,99286.88
2024-02-28T07:24:40.303Z,99289.52
2024-02-28T07:27:12.294Z,99288.23
2024-02-28T07:29:44.171Z,99292.59
2024-02-28T07:32:16.098Z,99288.61
2024-02-28T07:34:47.987Z,99295.98
2024-02-28T07:37:19.955Z,99293.46
2024-02-28T07:39:51.861Z,99296.09
2024-02-28T07:42:23.837Z,99297.38
2024-02-28T07:44:58.258Z,99296.13
2024-02-28T07:47:30.399Z,99297.16
2024-02-28T07:50:02.328Z,99296.05
2024-02-28T07:52:36.758Z,99295.10
2024-02-28T07:55:09.962Z,99299.04
2024-02-28T07:57:41.927Z,99299.50
2024-02-28T08:00:21.676Z,99304.94
2024-02-28T08:02:53.660Z,99309.04
2024-02-28T08:05:25.609Z,99310.83
2024-02-28T08:07:57.517Z,99314.17
2024-02-28T08:10:29.678Z,99315.25
2024-02-28T08:13:01.677Z,99317.25
2024-02-28T08:15:33.597Z,99316.13
2024-02-28T08:18:05.906Z,99317.64
2024-02-28T08:20:38.359Z,99319.79
2024-02-28T08:23:10.867Z,99316.76
2024-02-28T08:25:42.745Z,99318.40
2024-02-28T08:28:15.064Z,99323.14
2024-02-28T08:30:47.188Z,99324.25
2024-02-28T08:33:20.907Z,99321.73
2024-02-28T08:35:55.141Z,99322.77
2024-02-28T08:38:27.182Z,99323.63
2024-02-28T08:40:59.156Z,99328.21
2024-02-28T08:43:31.095Z,99330.42
2024-02-28T08:46:03.053Z,99331.83
2024-02-28T08:48:35.416Z,99329.44
2024-02-28T08:51:07.894Z,99330.61
2024-02-28T08:53:39.806Z,99328.45
2024-02-28T08:56:11.681Z,99329.69
2024-02-28T08:58:45.648Z,99330.88
2024-02-28T09:01:19.203Z,99330.91
2024-02-28T09:03:51.712Z,99331.30
2024-02-28T09:06:23.758Z,99332.50
2024-02-28T09:08:55.654Z,99332.61
2024-02-28T09:11:27.561Z,99334.20
2024-02-28T09:13:59.502Z,99335.86
2024-02-28T09:16:31.443Z,99337.17
2024-02-28T09:19:03.449Z,99340.73
2024-02-28T09:21:35.505Z,99344.34
2024-02-28T09:24:08.698Z,99342.13
2024-02-28T09:26:44.647Z,99347.09
2024-02-28T09:29:16.628Z,99345.51
2024-02-28T09:31:48.493Z,99345.46
2024-02-28T09:34:20.712Z,99345.98
2024-02-28T09:36:52.676Z,99351.77
2024-02-28T09:39:24.844Z,99350.36
2024-02-28T09:41:56.800Z,99350.63
2024-02-28T09:44:31.126Z,99354.77
2024-02-28T09:47:02.982Z,99355.01
2024-02-28T09:49:38.392Z,99355.35
2024-02-28T09:52:10.483Z,99354.67
2024-02-28T09:54:45.109Z,99360.33
2024-02-28T09:57:17.461Z,99357.23
2024-02-28T09:59:54.653Z,99360.63
2024-02-28T10:02:30.406Z,99360.23
2024-02-28T10:05:05.373Z,99364.20
2024-02-28T10:07:37.582Z,99367.23
2024-02-28T10:10:11.704Z,99369.65
2024-02-28T10:12:46.698Z,99372.02
2024-02-28T10:15:18.691Z,99372.04
2024-02-28T10:17:51.264Z,99375.00
2024-02-28T10:20:23.184Z,99378.45
2024-02-28T10:22:56.293Z,99382.65
2024-02-28T10:25:32.191Z,99379.00
2024-02-28T10:28:06.838Z,99385.81
2024-02-28T10:30:44.479Z,99386.13
2024-02-28T10:33:17.361Z,99386.17
2024-02-28T10:35:53.241Z,99387.23
2024-02-28T10:38:25.459Z,99391.08
2024-02-28T10:40:58.000Z,99391.24
2024-02-28T10:43:32.035Z,99393.17
2024-02-28T10:46:25.462Z,99398.27
2024-02-28T10:48:58.683Z,99395.86
2024-02-28T10:51:32.958Z,99396.59
2024-02-28T10:54:12.997Z,99396.08
2024-02-28T10:56:46.228Z,99401.84
2024-02-28T10:59:18.171Z,99403.58
2024-02-28T11:01:50.313Z,99408.02
2024-02-28T11:04:22.700Z,99406.63
2024-02-28T11:06:57.448Z,99404.11
2024-02-28T11:09:33.577Z,99404.98
2024-02-28T11:12:08.675Z,99410.02
2024-02-28T11:14:40.612Z,99412.30
2024-02-28T11:17:12.680Z,99411.79
2024-02-28T11:19:44.595Z,99410.26
2024-02-28T11:22:22.481Z,99412.09
2024-02-28T11:24:58.335Z,99413.91
2024-02-28T11:27:30.819Z,99414.52
2024-02-28T11:30:02.973Z,99416.02
2024-02-28T11:32:35.145Z,99415.98
2024-02-28T11:35:08.114Z,99413.25
2024-02-28T11:37:43.412Z,99417.22
2024-02-28T11:40:15.826Z,99417.75
2024-02-28T11:42:47.767Z,99419.42
2024-02-28T11:45:19.930Z,99425.52
2024-02-28T11:47:52.177Z,99427.34
2024-02-28T11:50:25.508Z,99427.09
2024-02-28T11:52:57.639Z,99421.37
2024-02-28T11:55:30.218Z,99426.02
2024-02-28T11:58:02.314Z,99429.50
2024-02-28T12:00:34.478Z,99433.02
2024-02-28T12:03:10.348Z,99433.21
2024-02-28T12:05:45.441Z,99437.82
2024-02-28T12:08:17.702Z,99433.92
2024-02-28T12:10:50.011Z,99436.91
2024-02-28T12:13:22.436Z,99436.82
2024-02-28T12:15:54.335Z,99433.73
2024-02-28T12:18:29.588Z,99430.46
2024-02-28T12:21:01.838Z,99432.16
2024-02-28T12:23:33.796Z,99430.80
2024-02-28T12:26:05.814Z,99430.11
2024-02-28T12:28:38.022Z,99435.92
2024-02-28T12:31:12.974Z,99430.52
2024-02-28T12:33:45.011Z,99427.59
2024-02-28T12:36:18.121Z,99426.25
2024-02-28T12:38:50.044Z,99426.17
2024-02-28T12:41:22.093Z,99425.98
2024-02-28T12:43:54.110Z,99430.53
2024-02-28T12:46:26.058Z,99434.05
2024-02-28T12:48:58.037Z,99434.25
2024-02-28T12:51:42.983Z,99439.73
2024-02-28T12:54:16.475Z,99440.02
2024-02-28T12:56:48.499Z,99443.46
2024-02-28T12:59:20.755Z,99441.41
2024-02-28T13:01:52.884Z,99442.63
2024-02-28T13:04:26.934Z,99442.26
2024-02-28T13:06:58.855Z,99449.93
2024-02-28T13:09:30.854Z,99448.80
2024-02-28T13:12:03.127Z,99454.95
2024-02-28T13:14:35.387Z,99458.80
2024-02-28T13:17:08.932Z,99458.14
2024-02-28T13:19:40.998Z,99458.14
2024-02-28T13:22:12.961Z,99459.08
2024-02-28T13:24:45.269Z,99461.66
2024-02-28T13:27:17.309Z,99458.86
2024-02-28T13:29:49.790Z,99458.28
2024-02-28T13:32:21.934Z,99459.80
2024-02-28T13:34:53.991Z,99460.89
2024-02-28T13:37:25.893Z,99460.23
2024-02-28T13:39:58.432Z,99463.98
2024-02-28T13:42:30.597Z,99464.10
2024-02-28T13:45:02.531Z,99460.83
2024-02-28T13:47:34.469Z,99465.09
2024-02-28T13:50:07.952Z,99465.25
2024-02-28T13:52:39.888Z,99463.21
2024-02-28T13:55:12.556Z,99466.23
2024-02-28T13:57:44.555Z,99464.00
2024-02-28T14:00:18.869Z,99463.60
2024-02-28T14:02:52.183Z,99467.77
2024-02-28T14:05:24.091Z,99468.28
2024-02-28T14:07:55.939Z,99468.59
2024-02-28T14:10:28.000Z,99473.16
2024-02-28T14:13:00.316Z,99466.80
2024-02-28T14:15:32.329Z,99475.88
2024-02-28T14:18:04.619Z,99477.50
2024-02-28T14:20:36.789Z,99483.23
2024-02-28T14:23:08.790Z,99489.46
2024-02-28T14:25:42.859Z,99494.20
2024-02-28T14:28:15.333Z,99494.69
2024-02-28T14:30:50.621Z,99496.87
2024-02-28T14:33:22.803Z,99501.29
2024-02-28T14:35:55.199Z,99504.59
2024-02-28T14:38:27.031Z,99502.77
2024-02-28T14:40:58.963Z,99504.97
2024-02-28T14:43:31.651Z,99508.19
2024-02-28T14:46:03.629Z,99508.98
2024-02-28T14:48:35.748Z,99512.35
2024-02-28T14:51:08.725Z,99514.88
2024-02-28T14:53:40.614Z,99514.41
2024-02-28T14:56:12.501Z,99517.24
2024-02-28T14:58:44.535Z,99522.09
2024-02-28T15:01:16.789Z,99522.67
2024-02-28T15:03:49.787Z,99523.54
2024-02-28T15:06:22.233Z,99522.14
2024-02-28T15:08:54.158Z,99524.45
2024-02-28T15:11:26.460Z,99526.84
2024-02-28T15:13:58.505Z,99523.27
2024-02-28T15:16:30.391Z,99524.04
2024-02-28T15:19:02.324Z,99527.59
2024-02-28T15:21:34.679Z,99529.55
2024-02-28T15:24:07.068Z,99530.38
2024-02-28T15:26:45.944Z,99531.13
2024-02-28T15:29:19.486Z,99533.08
2024-02-28T15:31:51.699Z,99534.42
2024-02-28T15:34:23.615Z,99535.04
2024-02-28T15:36:55.801Z,99536.77
2024-02-28T15:39:27.723Z,99543.81
2024-02-28T15:42:01.748Z,99543.00
2024-02-28T15:44:35.356Z,99543.89
2024-02-28T15:47:08.103Z,99541.91
2024-02-28T15:49:41.481Z,99541.12
2024-02-28T15:52:13.953Z,99538.39
2024-02-28T15:54:45.959Z,99543.06
2024-02-28T15:57:17.999Z,99549.48
2024-02-28T15:59:49.833Z,99556.05
2024-02-28T16:02:21.750Z,99558.91
2024-02-28T16:04:53.611Z,99563.68
2024-02-28T16:07:25.626Z,99559.01
2024-02-28T16:09:57.940Z,99558.16
2024-02-28T16:12:29.956Z,99561.09
2024-02-28T16:15:01.795Z,99565.35
2024-02-28T16:17:33.797Z,99572.06
2024-02-28T16:20:06.587Z,99573.54
2024-02-28T16:22:38.524Z,99574.96
2024-02-28T16:25:11.705Z,99574.33
2024-02-28T16:27:44.746Z,99576.11
2024-02-28T16:30:17.232Z,99572.23
2024-02-28T16:32:49.516Z,99567.53
2024-02-28T16:35:21.719Z,99574.64
2024-02-28T16:37:53.652Z,99576.91
2024-02-28T16:40:25.845Z,99581.10
2024-02-28T16:42:57.974Z,99586.66
2024-02-28T16:45:29.866Z,99590.52
2024-02-28T16:48:03.402Z,99594.61
2024-02-28T16:50:35.273Z,99595.46
2024-02-28T16:53:07.614Z,99597.48
2024-02-28T16:55:39.470Z,99597.30
2024-02-28T16:58:11.453Z,99600.64
2024-02-28T17:00:43.391Z,99604.61
2024-02-28T17:03:15.373Z,99612.10
2024-02-28T17:05:48.888Z,99614.86
2024-02-28T17:08:20.765Z,99613.41
2024-02-28T17:10:52.632Z,99611.89
2024-02-28T17:13:24.537Z,99622.21
2024-02-28T17:16:03.692Z,99620.73
2024-02-28T17:18:36.633Z,99625.94
2024-02-28T17:21:08.803Z,99624.93
2024-02-28T17:23:41.848Z,99625.59
2024-02-28T17:26:13.909Z,99633.09
2024-02-28T17:28:46.313Z,99635.68
2024-02-28T17:31:18.323Z,99640.27
2024-02-28T17:33:50.560Z,99637.36
2024-02-28T17:36:22.490Z,99638.48
2024-02-28T17:38:54.472Z,99644.56
2024-02-28T17:41:26.355Z,99643.95
2024-02-28T17:43:58.499Z,99642.77
2024-02-28T17:46:31.072Z,99639.50
2024-02-28T17:49:03.045Z,99641.16
2024-02-28T17:51:37.444Z,99645.34
2024-02-28T17:54:10.148Z,99647.98
2024-02-28T17:56:42.687Z,99645.03
2024-02-28T17:59:14.561Z,99645.85
2024-02-28T18:01:46.560Z,99650.23
2024-02-28T18:04:18.834Z,99641.26
2024-02-28T18:06:50.784Z,99640.80
2024-02-28T18:09:25.637Z,99640.69
2024-02-28T18:12:00.046Z,99647.38
2024-02-28T18:14:35.270Z,99647.61
2024-02-28T18:17:07.743Z,99646.77
2024-02-28T18:19:41.930Z,99650.34
2024-02-28T18:22:13.843Z,99653.21
2024-02-28T18:24:45.822Z,99652.02
2024-02-28T18:27:17.936Z,99653.93
2024-02-28T18:29:49.929Z,99650.77
2024-02-28T18:32:21.794Z,99658.52
2024-02-28T18:34:54.102Z,99656.11
2024-02-28T18:37:25.969Z,99660.70
2024-02-28T18:39:58.344Z,99666.26
2024-02-28T18:42:30.276Z,99664.75
2024-02-28T18:45:05.699Z,99663.17
2024-02-28T18:47:37.603Z,99664.32
2024-02-28T18:50:10.800Z,99663.23
2024-02-28T18:52:42.642Z,99660.13
2024-02-28T18:55:15.184Z,99665.60
2024-02-28T18:57:47.085Z,99667.11
2024-02-28T19:00:21.045Z,99668.16
2024-02-28T19:02:54.921Z,99669.90
2024-02-28T19:05:27.003Z,99667.77
2024-02-28T19:07:58.886Z,99673.52
2024-02-28T19:10:30.795Z,99674.13
2024-02-28T19:13:02.823Z,99676.33
2024-02-28T19:15:34.909Z,99678.02
2024-02-28T19:18:07.547Z,99678.36
2024-02-28T19:20:39.492Z,99679.54
2024-02-28T19:23:11.879Z,99682.27
2024-02-28T19:25:46.922Z,99683.60
2024-02-28T19:28:19.445Z,99691.97
2024-02-28T19:30:51.372Z,99691.45
2024-02-28T19:33:23.225Z,99688.73
2024-02-28T19:35:56.078Z,99690.27
2024-02-28T19:38:27.905Z,99687.50
2024-02-28T19:40:59.793Z,99689.65
2024-02-28T19:43:32.339Z,99692.55
2024-02-28T19:46:05.608Z,99691.21
2024-02-28T19:48:44.523Z,99690.02
2024-02-28T19:51:18.052Z,99691.70
2024-02-28T19:53:49.998Z,99701.18
2024-02-28T19:56:23.547Z,99704.82
2024-02-28T19:58:55.504Z,99705.60
2024-02-28T20:01:27.557Z,99703.07
2024-02-28T20:03:59.818Z,99706.48
2024-02-28T20:06:31.863Z,99710.30
2024-02-28T20:09:03.810Z,99712.66
2024-02-28T20:11:35.796Z,99715.00
2024-02-28T20:14:08.830Z,99716.16
2024-02-28T20:16:41.372Z,99714.02
2024-02-28T20:19:13.420Z,99712.66
2024-02-28T20:21:45.532Z,99712.74
2024-02-28T20:24:17.425Z,99716.36
2024-02-28T20:26:49.428Z,99717.56
2024-02-28T20:29:21.291Z,99718.27
2024-02-28T20:31:53.244Z,99718.20
2024-02-28T20:34:25.177Z,99719.66
2024-02-28T20:36:57.584Z,99723.10
2024-02-28T20:39:29.481Z,99723.36
2024-02-28T20:42:01.422Z,99725.32
2024-02-28T20:44:33.309Z,99729.89
2024-02-28T20:47:05.556Z,99733.04
2024-02-28T20:49:37.830Z,99735.45
2024-02-28T20:52:10.012Z,99734.23
2024-02-28T20:54:41.945Z,99737.83
2024-02-28T20:57:17.080Z,99741.42
2024-02-28T20:59:50.753Z,99743.17
2024-02-28T21:02:23.230Z,99741.96
2024-02-28T21:04:57.000Z,99742.86
2024-02-28T21:07:41.107Z,99744.27
2024-02-28T21:10:20.288Z,99743.11
2024-02-28T21:12:54.146Z,99742.38
2024-02-28T21:15:26.366Z,99745.23
2024-02-28T21:17:58.433Z,99745.77
2024-02-28T21:20:30.967Z,99747.23
2024-02-28T21:23:02.846Z,99747.70
2024-02-28T21:25:34.730Z,99743.98
2024-02-28T21:28:07.067Z,99746.84
2024-02-28T21:30:39.515Z,99744.17
2024-02-28T21:33:13.425Z,99748.48
2024-02-28T21:35:46.557Z,99748.65
2024-02-28T21:38:19.164Z,99749.05
2024-02-28T21:40:51.058Z,99752.64
2024-02-28T21:43:22.924Z,99755.16
2024-02-28T21:45:54.830Z,99752.77
2024-02-28T21:48:26.987Z,99750.51
2024-02-28T21:50:58.944Z,99754.55
2024-02-28T21:53:30.817Z,99754.19
2024-02-28T21:56:02.848Z,99755.33
2024-02-28T21:58:34.727Z,99757.21
2024-02-28T22:01:07.147Z,99757.48
2024-02-28T22:03:39.121Z,99762.44
2024-02-28T22:06:11.702Z,99763.33
2024-02-28T22:08:44.802Z,99764.69
2024-02-28T22:11:16.814Z,99759.72
2024-02-28T22:13:48.733Z,99758.78
2024-02-28T22:16:20.620Z,99756.66
2024-02-28T22:18:53.055Z,99756.11
2024-02-28T22:21:24.957Z,99753.94
2024-02-28T22:23:56.926Z,99757.52
2024-02-28T22:26:28.895Z,99761.80
2024-02-28T22:29:00.817Z,99766.92
2024-02-28T22:31:32.767Z,99767.02
2024-02-28T22:34:04.877Z,99769.29
2024-02-28T22:36:36.767Z,99772.67
2024-02-28T22:39:10.871Z,99773.11
2024-02-28T22:41:42.814Z,99775.00
2024-02-28T22:44:14.766Z,99770.96
2024-02-28T22:46:46.762Z,99772.80
2024-02-28T22:49:18.833Z,99768.77
2024-02-28T22:51:51.245Z,99769.26
2024-02-28T22:54:24.921Z,99767.91
2024-02-28T22:56:57.189Z,99766.83
2024-02-28T22:59:29.263Z,99773.27
2024-02-28T23:02:01.228Z,99772.35
2024-02-28T23:04:33.306Z,99775.04
2024-02-28T23:07:05.666Z,99778.78
2024-02-28T23:09:37.659Z,99779.11
2024-02-28T23:12:10.591Z,99779.86
2024-02-28T23:14:43.090Z,99782.88
2024-02-28T23:17:16.236Z,99780.57
2024-02-28T23:19:50.324Z,99780.80
2024-02-28T23:22:22.294Z,99781.02
2024-02-28T23:24:54.280Z,99778.67
2024-02-28T23:27:27.572Z,99774.90
2024-02-28T23:30:00.981Z,99777.23
2024-02-28T23:32:33.270Z,99780.95
2024-02-28T23:35:05.820Z,99779.59
2024-02-28T23:37:37.979Z,99780.27
2024-02-28T23:40:13.183Z,99783.63
2024-02-28T23:42:45.116Z,99784.67
2024-02-28T23:45:17.262Z,99783.17
2024-02-28T23:47:50.014Z,99786.98
2024-02-28T23:50:22.028Z,99788.09
2024-02-28T23:52:53.905Z,99788.91
2024-02-28T23:55:25.981Z,99792.96
2024-02-28T23:57:57.915Z,99795.08
